Time;durP1;ratioP1;P1;durP2;ratioP2;P2;SDS_P1;SDS_P2;PMS_P1;PMS_P2;Temp;Humidity;BMP_temperature;BMP_pressure;BME280_temperature;BME280_humidity;BME280_pressure;Samples;Min_cycle;Max_cycle;Signal;HPM_P1;HPM_P2
2023/04/23 00:00:02;;;;;;;45.17;29.40;;;10.90;99.90;;;;;;4772769;30;20279;-80
2023/04/23 00:02:38;;;;;;;46.30;28.83;;;10.80;99.90;;;;;;4774734;30;20238;-80
2023/04/23 00:05:05;;;;;;;43.50;29.77;;;10.80;99.90;;;;;;4774362;29;20240;-82
2023/04/23 00:07:33;;;;;;;47.25;30.48;;;10.80;99.90;;;;;;4761410;30;20280;-79
2023/04/23 00:10:00;;;;;;;48.67;29.60;;;10.80;99.90;;;;;;4769464;30;20204;-79
2023/04/23 00:12:27;;;;;;;50.42;33.22;;;10.70;99.90;;;;;;4780741;30;20193;-79
2023/04/23 00:14:53;;;;;;;51.47;32.67;;;10.70;99.90;;;;;;4753525;30;20318;-79
2023/04/23 00:17:19;;;;;;;53.83;33.42;;;10.60;99.90;;;;;;4768064;30;20281;-79
2023/04/23 00:19:46;;;;;;;55.95;34.55;;;10.60;99.90;;;;;;4775184;30;20793;-80
2023/04/23 00:22:12;;;;;;;52.95;34.58;;;10.50;99.90;;;;;;4781821;30;20284;-80
2023/04/23 00:24:39;;;;;;;57.10;35.08;;;10.50;99.90;;;;;;4757842;30;20224;-82
2023/04/23 00:27:05;;;;;;;55.45;34.97;;;10.40;99.90;;;;;;4785047;29;20275;-80
2023/04/23 00:29:31;;;;;;;58.78;35.63;;;10.40;99.90;;;;;;4791691;30;20284;-80
2023/04/23 00:31:57;;;;;;;55.88;34.90;;;10.40;99.90;;;;;;4789578;30;20222;-80
2023/04/23 00:34:23;;;;;;;57.45;35.53;;;10.30;99.90;;;;;;4791114;30;20271;-79
2023/04/23 00:36:48;;;;;;;54.67;33.15;;;10.30;99.90;;;;;;4786492;29;20279;-79
2023/04/23 00:39:14;;;;;;;53.67;33.92;;;10.30;99.90;;;;;;4765952;30;20542;-79
2023/04/23 00:41:41;;;;;;;53.70;33.30;;;10.20;99.90;;;;;;4744683;30;20380;-79
2023/04/23 00:44:10;;;;;;;53.70;32.97;;;10.20;99.90;;;;;;4775081;30;20235;-79
2023/04/23 00:46:36;;;;;;;53.75;33.05;;;10.20;99.90;;;;;;4788936;29;20219;-83
2023/04/23 00:49:02;;;;;;;52.45;33.42;;;10.20;99.90;;;;;;4789366;30;20200;-81
2023/04/23 00:51:28;;;;;;;54.42;33.97;;;10.10;99.90;;;;;;4790406;30;20284;-80
2023/04/23 00:53:55;;;;;;;58.63;34.78;;;10.10;99.90;;;;;;4791100;30;20181;-80
2023/04/23 00:56:22;;;;;;;52.95;32.67;;;10.10;99.90;;;;;;4772498;29;20562;-80
2023/04/23 00:58:49;;;;;;;53.95;32.47;;;10.10;99.90;;;;;;4784476;29;20193;-80
2023/04/23 01:01:19;;;;;;;53.95;32.03;;;10.10;99.90;;;;;;4747367;30;20232;-80
2023/04/23 01:03:47;;;;;;;55.35;32.83;;;10.00;99.90;;;;;;4771778;30;20276;-79
2023/04/23 01:06:17;;;;;;;52.08;32.60;;;10.00;99.90;;;;;;4772552;29;20217;-82
2023/04/23 01:08:45;;;;;;;54.28;33.05;;;10.00;99.90;;;;;;4776473;30;20189;-80
2023/04/23 01:11:14;;;;;;;56.83;33.25;;;10.00;99.90;;;;;;4782711;30;20201;-79
2023/04/23 01:13:42;;;;;;;50.80;32.53;;;10.00;99.90;;;;;;4761595;30;20188;-79
2023/04/23 01:16:08;;;;;;;56.63;33.08;;;9.90;99.90;;;;;;4787941;30;20209;-79
2023/04/23 01:18:35;;;;;;;53.50;33.25;;;9.90;99.90;;;;;;4780251;29;20287;-80
2023/04/23 01:21:02;;;;;;;56.22;33.05;;;9.90;99.90;;;;;;4769126;30;20338;-80
2023/04/23 01:23:28;;;;;;;55.95;33.00;;;9.80;99.90;;;;;;4786081;30;20197;-79
2023/04/23 01:25:54;;;;;;;52.60;32.90;;;9.90;99.90;;;;;;4757761;30;20225;-80
2023/04/23 01:28:21;;;;;;;56.78;33.30;;;9.90;99.90;;;;;;4785971;29;20241;-79
2023/04/23 01:30:47;;;;;;;52.20;32.15;;;9.90;99.90;;;;;;4759202;30;20192;-79
2023/04/23 01:33:14;;;;;;;53.78;31.38;;;9.90;99.90;;;;;;4773792;30;20196;-79
2023/04/23 01:35:42;;;;;;;52.85;33.15;;;9.80;99.90;;;;;;4769938;30;20212;-79
2023/04/23 01:38:09;;;;;;;54.83;32.85;;;9.80;99.90;;;;;;4768524;30;20228;-80
2023/04/23 01:40:36;;;;;;;53.15;32.42;;;9.80;99.90;;;;;;4759173;30;20193;-79
2023/04/23 01:43:03;;;;;;;57.85;33.38;;;9.80;99.90;;;;;;4771902;30;20666;-82
2023/04/23 01:45:30;;;;;;;57.45;33.47;;;9.80;99.90;;;;;;4790198;30;20231;-79
2023/04/23 01:47:57;;;;;;;63.85;34.47;;;9.80;99.90;;;;;;4769217;29;20325;-79
2023/04/23 01:50:25;;;;;;;55.30;33.38;;;9.80;99.90;;;;;;4779946;29;20201;-79
2023/04/23 01:52:50;;;;;;;55.55;32.78;;;9.80;99.90;;;;;;4757817;30;20205;-80
2023/04/23 01:55:19;;;;;;;54.67;33.45;;;9.70;99.90;;;;;;4756058;30;20189;-79
2023/04/23 01:57:46;;;;;;;54.55;32.50;;;9.70;99.90;;;;;;4754176;30;20227;-79
2023/04/23 02:00:13;;;;;;;57.38;34.08;;;9.70;99.90;;;;;;4753903;30;20194;-82
2023/04/23 02:02:41;;;;;;;60.67;34.17;;;9.70;99.90;;;;;;4788405;30;20284;-79
2023/04/23 02:05:11;;;;;;;55.42;35.00;;;9.70;99.90;;;;;;4773447;30;20308;-79
2023/04/23 02:07:37;;;;;;;61.10;35.53;;;9.70;99.90;;;;;;4766426;30;20216;-79
2023/04/23 02:10:04;;;;;;;62.95;37.58;;;9.70;99.90;;;;;;4783235;29;20202;-81
2023/04/23 02:12:30;;;;;;;62.15;36.25;;;9.70;99.90;;;;;;4754558;30;20201;-79
2023/04/23 02:14:56;;;;;;;64.65;37.30;;;9.70;99.90;;;;;;4755461;30;20188;-80
2023/04/23 02:17:21;;;;;;;61.78;38.65;;;9.70;99.90;;;;;;4765913;30;20224;-79
2023/04/23 02:19:50;;;;;;;67.65;39.03;;;9.70;99.90;;;;;;4784984;29;20275;-78
2023/04/23 02:22:17;;;;;;;66.25;39.38;;;9.60;99.90;;;;;;4769885;30;20291;-78
2023/04/23 02:24:43;;;;;;;71.22;41.33;;;9.60;99.90;;;;;;4773264;30;20235;-79
2023/04/23 02:27:09;;;;;;;75.70;42.15;;;9.60;99.90;;;;;;4770342;30;20197;-79
2023/04/23 02:29:35;;;;;;;73.95;43.20;;;9.60;99.90;;;;;;4770873;30;20244;-81
2023/04/23 02:32:02;;;;;;;78.13;43.78;;;9.60;99.90;;;;;;4776364;29;20197;-79
2023/04/23 02:34:29;;;;;;;81.45;44.28;;;9.60;99.90;;;;;;4773399;30;20657;-79
2023/04/23 02:36:54;;;;;;;81.10;45.80;;;9.60;99.90;;;;;;4785805;29;20192;-79
2023/04/23 02:39:20;;;;;;;77.78;45.08;;;9.60;99.90;;;;;;4764247;30;20237;-79
2023/04/23 02:41:46;;;;;;;85.57;48.30;;;9.60;99.90;;;;;;4766977;30;20664;-79
2023/04/23 02:44:11;;;;;;;85.43;48.33;;;9.50;99.90;;;;;;4763218;30;20185;-79
2023/04/23 02:46:37;;;;;;;83.40;46.30;;;9.50;99.90;;;;;;4774017;29;20266;-82
2023/04/23 02:49:05;;;;;;;89.47;48.47;;;9.50;99.90;;;;;;4783978;29;20325;-80
2023/04/23 02:51:31;;;;;;;92.20;48.85;;;9.50;99.90;;;;;;4761625;30;20185;-79
2023/04/23 02:53:58;;;;;;;96.32;49.90;;;9.50;99.90;;;;;;4788674;30;20268;-78
2023/04/23 02:56:24;;;;;;;88.70;49.70;;;9.50;99.90;;;;;;4778815;29;20675;-79
2023/04/23 02:58:50;;;;;;;97.28;51.20;;;9.50;99.90;;;;;;4761548;30;20572;-78
2023/04/23 03:01:16;;;;;;;98.75;50.83;;;9.50;99.90;;;;;;4758055;30;20193;-78
2023/04/23 03:03:42;;;;;;;97.88;51.20;;;9.40;99.90;;;;;;4772897;30;20272;-78
2023/04/23 03:06:08;;;;;;;93.88;52.17;;;9.40;99.90;;;;;;4770051;29;20745;-78
2023/04/23 03:08:34;;;;;;;95.32;50.55;;;9.40;99.90;;;;;;4783017;30;20275;-78
2023/04/23 03:11:00;;;;;;;103.30;52.80;;;9.40;99.90;;;;;;4782970;30;20188;-79
2023/04/23 03:13:26;;;;;;;92.38;50.50;;;9.30;99.90;;;;;;4775204;30;20505;-78
2023/04/23 03:15:53;;;;;;;92.82;49.33;;;9.20;99.90;;;;;;4784853;29;20212;-81
2023/04/23 03:18:19;;;;;;;92.78;50.75;;;9.20;99.90;;;;;;4780973;29;20267;-80
2023/04/23 03:20:48;;;;;;;95.15;48.80;;;9.20;99.90;;;;;;4757821;30;20229;-80
2023/04/23 03:23:15;;;;;;;96.65;50.15;;;9.20;99.90;;;;;;4771882;30;20208;-80
2023/04/23 03:25:41;;;;;;;100.50;51.70;;;9.10;99.90;;;;;;4772290;30;20234;-78
2023/04/23 03:28:07;;;;;;;94.32;50.53;;;9.10;99.90;;;;;;4779854;30;20232;-78
2023/04/23 03:30:33;;;;;;;101.28;50.22;;;9.10;99.90;;;;;;4785273;30;20540;-78
2023/04/23 03:33:01;;;;;;;109.55;53.22;;;9.00;99.90;;;;;;4756587;30;20362;-78
2023/04/23 03:35:27;;;;;;;100.05;51.78;;;9.00;99.90;;;;;;4757259;30;20287;-79
2023/04/23 03:37:55;;;;;;;106.88;52.78;;;9.00;99.90;;;;;;4769802;30;20196;-81
2023/04/23 03:40:22;;;;;;;104.43;52.33;;;9.00;99.90;;;;;;4771860;30;20192;-78
2023/04/23 03:42:52;;;;;;;102.00;52.33;;;8.90;99.90;;;;;;4771223;30;20189;-80
2023/04/23 03:45:25;;;;;;;102.80;51.40;;;8.90;99.90;;;;;;4771312;30;20239;-78
2023/04/23 03:47:51;;;;;;;101.72;51.38;;;8.90;99.90;;;;;;4766288;30;20213;-79
2023/04/23 03:50:17;;;;;;;107.85;51.85;;;8.80;99.90;;;;;;4739557;30;20604;-79
2023/04/23 03:52:48;;;;;;;105.38;52.88;;;8.80;99.90;;;;;;4755485;30;20568;-78
2023/04/23 03:55:28;;;;;;;106.43;53.83;;;8.80;99.90;;;;;;4771746;30;20254;-78
2023/04/23 03:57:54;;;;;;;112.25;55.05;;;8.70;99.90;;;;;;4766988;30;20288;-80
2023/04/23 04:00:23;;;;;;;114.43;55.50;;;8.70;99.90;;;;;;4769730;30;20231;-79
2023/04/23 04:02:49;;;;;;;116.45;56.25;;;8.70;99.90;;;;;;4771565;30;20221;-79
2023/04/23 04:05:16;;;;;;;119.85;58.33;;;8.60;99.90;;;;;;4772025;30;20229;-80
2023/04/23 04:07:44;;;;;;;123.57;57.28;;;8.70;99.90;;;;;;4755742;30;20192;-79
2023/04/23 04:10:10;;;;;;;139.35;61.33;;;8.60;99.90;;;;;;4768544;30;20562;-80
2023/04/23 04:12:36;;;;;;;123.10;58.67;;;8.60;99.90;;;;;;4771246;30;20250;-80
2023/04/23 04:15:03;;;;;;;141.60;61.70;;;8.60;99.90;;;;;;4787238;30;20201;-80
2023/04/23 04:17:29;;;;;;;134.77;62.72;;;8.70;99.90;;;;;;4784313;30;20191;-84
2023/04/23 04:19:55;;;;;;;137.32;62.58;;;8.70;99.90;;;;;;4782811;29;20193;-80
2023/04/23 04:22:20;;;;;;;140.50;64.22;;;8.70;99.90;;;;;;4786742;30;20300;-81
2023/04/23 04:24:47;;;;;;;141.65;63.58;;;8.70;99.90;;;;;;4787626;30;20228;-79
2023/04/23 04:27:13;;;;;;;140.35;64.82;;;8.60;99.90;;;;;;4776418;29;20724;-78
2023/04/23 04:29:42;;;;;;;154.07;64.30;;;8.70;99.90;;;;;;4755349;30;20670;-80
2023/04/23 04:32:08;;;;;;;140.93;63.75;;;8.70;99.90;;;;;;4779089;30;20189;-80
2023/04/23 04:34:35;;;;;;;143.57;65.22;;;8.60;99.90;;;;;;4771354;30;20193;-80
2023/04/23 04:37:00;;;;;;;148.15;66.80;;;8.70;99.90;;;;;;4770211;30;20254;-81
2023/04/23 04:39:26;;;;;;;142.60;64.90;;;8.70;99.90;;;;;;4780142;29;20288;-81
2023/04/23 04:41:53;;;;;;;149.45;67.75;;;8.60;99.90;;;;;;4778777;29;20205;-79
2023/04/23 04:44:18;;;;;;;148.07;67.78;;;8.70;99.90;;;;;;4787084;30;20192;-79
2023/04/23 04:46:44;;;;;;;145.93;67.25;;;8.60;99.90;;;;;;4771065;30;20273;-79
2023/04/23 04:49:11;;;;;;;154.80;65.82;;;8.60;99.90;;;;;;4786375;29;20201;-80
2023/04/23 04:51:37;;;;;;;145.43;65.72;;;8.70;99.90;;;;;;4781592;30;20538;-82
2023/04/23 04:54:03;;;;;;;145.40;65.72;;;8.60;99.90;;;;;;4787348;30;20185;-80
2023/04/23 04:56:29;;;;;;;153.57;67.25;;;8.70;99.90;;;;;;4770314;29;20205;-79
2023/04/23 04:58:55;;;;;;;144.27;66.38;;;8.70;99.90;;;;;;4753887;30;20619;-79
2023/04/23 05:01:25;;;;;;;141.80;63.83;;;8.70;99.90;;;;;;4781335;29;20288;-79
2023/04/23 05:03:52;;;;;;;142.50;65.38;;;8.60;99.90;;;;;;4774270;30;20195;-79
2023/04/23 05:06:18;;;;;;;142.32;65.60;;;8.70;99.90;;;;;;4786201;29;20592;-80
2023/04/23 05:08:47;;;;;;;136.57;63.25;;;8.60;99.90;;;;;;4789602;30;20193;-80
2023/04/23 05:11:17;;;;;;;135.57;63.03;;;8.60;99.90;;;;;;4787444;30;20193;-78
2023/04/23 05:13:44;;;;;;;132.20;62.38;;;8.60;99.90;;;;;;4772953;30;20185;-80
2023/04/23 05:16:10;;;;;;;133.20;61.42;;;8.60;99.90;;;;;;4742521;30;20232;-78
2023/04/23 05:18:37;;;;;;;125.70;59.85;;;8.60;99.90;;;;;;4781506;29;20201;-80
2023/04/23 05:21:03;;;;;;;121.82;58.83;;;8.60;99.90;;;;;;4763960;30;20228;-79
2023/04/23 05:23:29;;;;;;;127.65;61.58;;;8.60;99.90;;;;;;4773926;30;20224;-79
2023/04/23 05:25:57;;;;;;;124.90;58.45;;;8.60;99.90;;;;;;4770049;30;20286;-79
2023/04/23 05:28:23;;;;;;;123.93;60.03;;;8.60;99.90;;;;;;4765196;30;20332;-81
2023/04/23 05:30:49;;;;;;;120.93;57.80;;;8.60;99.90;;;;;;4761008;30;20538;-82
2023/04/23 05:33:15;;;;;;;117.40;58.00;;;8.60;99.90;;;;;;4753639;30;20201;-79
2023/04/23 05:35:41;;;;;;;130.60;58.80;;;8.50;99.90;;;;;;4783570;30;20633;-81
2023/04/23 05:38:07;;;;;;;123.40;58.03;;;8.50;99.90;;;;;;4788088;29;20197;-80
2023/04/23 05:40:33;;;;;;;124.20;58.83;;;8.60;99.90;;;;;;4785712;29;20189;-81
2023/04/23 05:42:59;;;;;;;132.95;58.40;;;8.60;99.90;;;;;;4779773;29;20277;-80
2023/04/23 05:45:25;;;;;;;132.95;61.20;;;8.60;99.90;;;;;;4785530;29;20282;-79
2023/04/23 05:47:51;;;;;;;136.43;61.95;;;8.60;99.90;;;;;;4763073;29;20600;-80
2023/04/23 05:50:17;;;;;;;127.03;59.72;;;8.60;99.90;;;;;;4783293;29;20197;-79
2023/04/23 05:52:43;;;;;;;126.80;60.35;;;8.50;99.90;;;;;;4773205;30;20216;-78
2023/04/23 05:55:10;;;;;;;127.05;60.55;;;8.50;99.90;;;;;;4771583;30;20654;-78
2023/04/23 05:57:36;;;;;;;128.32;60.65;;;8.50;99.90;;;;;;4756446;30;20290;-79
2023/04/23 06:00:04;;;;;;;144.20;63.33;;;8.50;99.90;;;;;;4761007;30;20246;-85
2023/04/23 06:02:38;;;;;;;150.13;67.40;;;8.60;99.90;;;;;;4786853;30;20196;-80
2023/04/23 06:05:05;;;;;;;159.70;69.75;;;8.60;99.90;;;;;;4789003;30;20743;-79
2023/04/23 06:07:31;;;;;;;158.98;70.20;;;8.60;99.90;;;;;;4788812;30;20252;-79
2023/04/23 06:09:57;;;;;;;158.73;67.95;;;8.70;99.90;;;;;;4773673;30;20189;-80
2023/04/23 06:12:23;;;;;;;166.27;74.13;;;8.70;99.90;;;;;;4789497;29;20193;-80
2023/04/23 06:14:49;;;;;;;169.20;73.90;;;8.70;99.90;;;;;;4773147;30;20295;-79
2023/04/23 06:17:15;;;;;;;178.88;77.53;;;8.80;99.90;;;;;;4786504;29;20189;-79
2023/04/23 06:19:41;;;;;;;166.27;75.95;;;8.80;99.90;;;;;;4769793;30;20201;-80
2023/04/23 06:22:06;;;;;;;179.40;78.53;;;8.90;99.90;;;;;;4755418;30;20194;-79
2023/04/23 06:24:32;;;;;;;173.25;76.50;;;8.90;99.90;;;;;;4788944;30;20626;-82
2023/04/23 06:26:58;;;;;;;171.38;77.70;;;8.90;99.90;;;;;;4788885;29;20200;-81
2023/04/23 06:29:25;;;;;;;184.05;78.13;;;9.00;99.90;;;;;;4773857;29;20256;-81
2023/04/23 06:32:03;;;;;;;192.77;79.95;;;9.00;99.90;;;;;;4773317;30;20199;-80
2023/04/23 06:34:29;;;;;;;179.50;77.45;;;9.10;99.90;;;;;;4788932;30;20311;-79
2023/04/23 06:36:55;;;;;;;174.98;77.00;;;9.10;99.90;;;;;;4769012;29;20666;-81
2023/04/23 06:39:21;;;;;;;171.95;76.20;;;9.20;99.90;;;;;;4769833;29;20212;-82
2023/04/23 06:41:47;;;;;;;172.00;76.60;;;9.30;99.90;;;;;;4783076;29;20194;-79
2023/04/23 06:44:21;;;;;;;167.77;75.35;;;9.40;99.90;;;;;;4758363;30;20334;-80
2023/04/23 06:46:50;;;;;;;166.32;75.53;;;9.40;99.90;;;;;;4777304;29;20720;-82
2023/04/23 06:49:17;;;;;;;159.13;74.68;;;9.50;99.90;;;;;;4776246;30;20197;-80
2023/04/23 06:51:43;;;;;;;161.38;74.65;;;9.60;99.90;;;;;;4786470;29;20216;-81
2023/04/23 06:54:09;;;;;;;154.70;73.03;;;9.70;99.90;;;;;;4786633;29;20646;-81
2023/04/23 06:56:34;;;;;;;140.95;69.75;;;9.80;99.90;;;;;;4768960;30;20211;-80
2023/04/23 06:59:00;;;;;;;133.98;69.43;;;9.90;99.90;;;;;;4772758;30;20188;-79
2023/04/23 07:01:26;;;;;;;125.35;61.33;;;10.00;99.90;;;;;;4771506;30;20279;-81
2023/04/23 07:03:53;;;;;;;118.97;60.35;;;10.10;99.90;;;;;;4784021;29;20385;-80
2023/04/23 07:06:19;;;;;;;117.72;58.80;;;10.30;99.90;;;;;;4765239;30;20236;-80
2023/04/23 07:08:45;;;;;;;107.88;58.08;;;10.50;99.90;;;;;;4757735;30;20668;-80
2023/04/23 07:11:11;;;;;;;106.97;56.35;;;10.60;99.90;;;;;;4787878;30;20193;-81
2023/04/23 07:13:38;;;;;;;104.30;56.33;;;10.80;99.90;;;;;;4772203;30;20661;-80
2023/04/23 07:16:03;;;;;;;98.97;55.95;;;10.90;99.90;;;;;;4784731;29;20630;-81
2023/04/23 07:18:29;;;;;;;101.55;55.10;;;11.10;99.90;;;;;;4787592;29;20200;-81
2023/04/23 07:20:55;;;;;;;95.22;55.13;;;11.20;99.90;;;;;;4793417;29;20634;-81
2023/04/23 07:23:21;;;;;;;98.93;53.58;;;11.30;99.90;;;;;;4782969;30;20715;-81
2023/04/23 07:25:47;;;;;;;89.28;50.58;;;11.50;99.90;;;;;;4769883;29;20252;-81
2023/04/23 07:28:13;;;;;;;90.10;51.63;;;11.60;99.90;;;;;;4782965;29;20232;-81
2023/04/23 07:30:38;;;;;;;88.95;52.20;;;11.70;99.90;;;;;;4784761;29;20568;-81
2023/04/23 07:33:04;;;;;;;93.63;52.92;;;12.00;99.90;;;;;;4788392;30;20184;-81
2023/04/23 07:35:30;;;;;;;83.90;48.97;;;12.30;99.90;;;;;;4788141;30;20288;-81
2023/04/23 07:37:56;;;;;;;81.53;47.60;;;12.60;99.90;;;;;;4756335;29;20199;-81
2023/04/23 07:40:23;;;;;;;80.40;45.90;;;12.90;99.90;;;;;;4786160;30;20686;-81
2023/04/23 07:42:50;;;;;;;81.07;45.88;;;13.00;99.90;;;;;;4771936;30;20231;-80
2023/04/23 07:45:16;;;;;;;70.90;45.15;;;13.10;99.90;;;;;;4755507;30;20218;-80
2023/04/23 07:47:42;;;;;;;70.95;45.13;;;13.20;99.90;;;;;;4784119;29;20190;-80
2023/04/23 07:50:09;;;;;;;76.07;45.25;;;13.10;99.90;;;;;;4784861;29;20561;-80
2023/04/23 07:52:34;;;;;;;73.50;43.30;;;13.10;99.90;;;;;;4769776;29;20192;-80
2023/04/23 07:55:01;;;;;;;71.50;43.42;;;13.10;99.90;;;;;;4791591;29;20539;-80
2023/04/23 07:57:27;;;;;;;71.53;44.42;;;13.10;99.90;;;;;;4787506;29;20204;-81
2023/04/23 07:59:52;;;;;;;70.38;43.30;;;13.10;99.90;;;;;;4771810;30;20200;-80
2023/04/23 08:02:22;;;;;;;67.00;42.75;;;13.10;99.90;;;;;;4783561;29;20197;-80
2023/04/23 08:04:48;;;;;;;69.00;42.20;;;13.20;99.90;;;;;;4753428;30;20200;-81
2023/04/23 08:07:14;;;;;;;67.20;39.88;;;13.20;99.90;;;;;;4770010;30;20284;-81
2023/04/23 08:09:40;;;;;;;62.53;39.97;;;13.40;99.90;;;;;;4755516;29;20677;-82
2023/04/23 08:12:06;;;;;;;60.95;40.03;;;13.50;99.90;;;;;;4774303;29;20205;-80
2023/04/23 08:14:32;;;;;;;65.57;40.65;;;13.60;99.90;;;;;;4784672;29;20573;-80
2023/04/23 08:17:01;;;;;;;56.85;37.35;;;13.80;99.90;;;;;;4771462;30;20669;-81
2023/04/23 08:19:30;;;;;;;58.30;39.67;;;14.00;99.90;;;;;;4771597;30;20197;-80
2023/04/23 08:21:56;;;;;;;60.10;39.15;;;14.20;99.90;;;;;;4786972;30;20201;-81
2023/04/23 08:24:22;;;;;;;54.50;35.90;;;14.20;99.90;;;;;;4787692;30;20191;-80
2023/04/23 08:26:47;;;;;;;56.70;37.00;;;14.30;99.90;;;;;;4771839;30;20224;-80
2023/04/23 08:29:13;;;;;;;55.65;37.38;;;14.50;99.90;;;;;;4753541;30;20242;-79
2023/04/23 08:31:40;;;;;;;51.42;33.75;;;14.70;99.90;;;;;;4771932;30;20189;-81
2023/04/23 08:34:06;;;;;;;51.65;32.53;;;14.90;99.90;;;;;;4770507;30;20196;-81
2023/04/23 08:36:32;;;;;;;50.95;34.90;;;15.10;99.90;;;;;;4772506;30;20287;-83
2023/04/23 08:38:59;;;;;;;54.72;34.83;;;15.40;99.90;;;;;;4791740;30;20723;-79
2023/04/23 08:41:33;;;;;;;49.17;31.73;;;15.50;99.90;;;;;;4775649;30;20251;-81
2023/04/23 08:44:21;;;;;;;51.15;34.13;;;15.70;99.90;;;;;;4775135;30;20173;-81
2023/04/23 08:46:47;;;;;;;45.55;31.42;;;15.80;99.90;;;;;;4775450;30;20258;-82
2023/04/23 08:49:17;;;;;;;47.72;31.92;;;16.00;99.90;;;;;;4791043;30;20714;-82
2023/04/23 08:51:56;;;;;;;43.85;31.55;;;16.20;99.90;;;;;;4775076;30;20547;-81
2023/04/23 08:54:26;;;;;;;50.85;31.48;;;16.20;99.90;;;;;;4775281;30;20188;-83
2023/04/23 08:56:57;;;;;;;43.97;29.95;;;16.30;99.90;;;;;;4774774;30;20213;-79
2023/04/23 08:59:24;;;;;;;44.45;30.17;;;16.30;99.90;;;;;;4785851;29;20189;-84
2023/04/23 09:01:51;;;;;;;43.50;29.52;;;16.40;99.90;;;;;;4790767;30;20199;-82
2023/04/23 09:04:19;;;;;;;39.83;27.90;;;16.50;99.90;;;;;;4774942;30;20196;-80
2023/04/23 09:06:45;;;;;;;37.70;26.33;;;16.70;99.90;;;;;;4790036;30;20224;-81
2023/04/23 09:09:14;;;;;;;37.80;24.52;;;16.80;99.90;;;;;;4790926;30;20189;-81
2023/04/23 09:11:41;;;;;;;38.22;26.92;;;17.00;99.90;;;;;;4786407;29;20193;-82
2023/04/23 09:14:07;;;;;;;40.90;27.63;;;17.10;99.90;;;;;;4774088;30;20250;-81
2023/04/23 09:16:33;;;;;;;35.90;24.98;;;17.20;99.90;;;;;;4772323;30;20215;-81
2023/04/23 09:18:59;;;;;;;32.35;22.00;;;17.30;99.90;;;;;;4759031;30;20197;-82
2023/04/23 09:21:25;;;;;;;34.08;22.60;;;17.40;99.90;;;;;;4806709;29;20279;-83
2023/04/23 09:23:51;;;;;;;31.02;21.60;;;17.50;99.90;;;;;;4776869;30;20296;-85
2023/04/23 09:26:21;;;;;;;28.63;20.48;;;17.70;99.90;;;;;;4765534;30;20315;-82
2023/04/23 09:28:52;;;;;;;30.10;20.45;;;17.80;99.90;;;;;;4773898;29;20229;-81
2023/04/23 09:31:22;;;;;;;28.40;20.13;;;17.90;99.90;;;;;;4774352;30;20203;-80
2023/04/23 09:33:53;;;;;;;33.33;21.02;;;18.00;99.90;;;;;;4786620;30;20196;-80
2023/04/23 09:36:22;;;;;;;32.38;20.90;;;18.00;99.90;;;;;;4777146;29;20228;-80
2023/04/23 09:38:49;;;;;;;31.08;20.73;;;18.00;99.90;;;;;;4779980;29;20212;-81
2023/04/23 09:41:23;;;;;;;30.95;20.63;;;18.10;99.90;;;;;;4779651;29;20650;-81
2023/04/23 09:43:51;;;;;;;26.00;18.92;;;18.10;99.90;;;;;;4784319;29;20204;-80
2023/04/23 09:46:17;;;;;;;23.30;17.25;;;18.20;99.90;;;;;;4788491;30;20216;-80
2023/04/23 09:48:42;;;;;;;23.67;16.60;;;18.30;99.90;;;;;;4787807;29;20668;-81
2023/04/23 09:51:12;;;;;;;27.38;17.60;;;18.20;99.90;;;;;;4769713;30;20283;-80
2023/04/23 09:53:44;;;;;;;24.73;16.85;;;18.20;99.90;;;;;;4775071;29;20203;-81
2023/04/23 09:56:10;;;;;;;24.23;17.02;;;18.00;99.90;;;;;;4780128;29;20222;-81
2023/04/23 09:58:37;;;;;;;28.35;17.35;;;18.00;99.90;;;;;;4782577;29;20285;-81
2023/04/23 10:01:07;;;;;;;21.85;14.52;;;17.90;99.90;;;;;;4772652;30;20280;-81
2023/04/23 10:03:33;;;;;;;23.33;15.00;;;18.00;99.90;;;;;;4772134;30;20233;-81
2023/04/23 10:05:59;;;;;;;24.05;15.27;;;17.80;99.90;;;;;;4787541;30;20252;-81
2023/04/23 10:08:25;;;;;;;24.02;15.13;;;17.70;99.90;;;;;;4780365;30;20197;-80
2023/04/23 10:10:50;;;;;;;20.63;13.68;;;17.60;99.90;;;;;;4772963;30;20674;-82
2023/04/23 10:13:17;;;;;;;22.08;14.20;;;17.60;99.90;;;;;;4788642;30;20185;-81
2023/04/23 10:15:46;;;;;;;21.17;14.13;;;17.50;99.90;;;;;;4764700;29;20242;-81
2023/04/23 10:18:13;;;;;;;22.60;14.63;;;17.60;99.90;;;;;;4773323;29;20288;-81
2023/04/23 10:20:40;;;;;;;21.02;13.43;;;17.50;99.90;;;;;;4787613;30;20200;-82
2023/04/23 10:23:08;;;;;;;20.55;12.10;;;17.50;99.90;;;;;;4771266;30;20204;-83
2023/04/23 10:25:37;;;;;;;19.95;10.35;;;17.50;99.90;;;;;;4766364;30;20236;-83
2023/04/23 10:28:06;;;;;;;14.52;9.90;;;17.50;99.90;;;;;;4781725;29;20318;-84
2023/04/23 10:30:32;;;;;;;14.95;8.50;;;17.60;99.90;;;;;;4774745;29;20329;-81
2023/04/23 10:33:00;;;;;;;14.85;7.95;;;17.80;99.90;;;;;;4772096;30;20669;-82
2023/04/23 10:35:26;;;;;;;13.45;7.80;;;18.00;99.90;;;;;;4788848;29;20220;-83
2023/04/23 10:37:52;;;;;;;14.10;7.88;;;18.20;99.90;;;;;;4782926;29;20271;-82
2023/04/23 10:40:25;;;;;;;19.23;9.10;;;18.30;99.90;;;;;;4773146;30;20208;-82
2023/04/23 10:42:51;;;;;;;17.90;7.57;;;18.50;99.90;;;;;;4789453;30;20195;-82
2023/04/23 10:45:18;;;;;;;16.27;6.40;;;18.60;99.90;;;;;;4796401;29;20577;-84
2023/04/23 10:47:45;;;;;;;15.73;5.90;;;18.60;99.90;;;;;;4792306;29;20196;-83
2023/04/23 10:50:37;;;;;;;13.20;6.43;;;18.60;99.90;;;;;;4773131;30;20209;-83
2023/04/23 10:53:03;;;;;;;16.23;5.95;;;18.70;99.90;;;;;;4771052;30;20763;-82
2023/04/23 10:55:30;;;;;;;13.88;5.40;;;18.80;99.90;;;;;;4772652;30;20228;-82
2023/04/23 10:58:04;;;;;;;11.82;4.97;;;18.80;99.90;;;;;;4785089;29;20243;-84
2023/04/23 11:00:51;;;;;;;11.02;5.30;;;18.80;99.90;;;;;;4784840;29;20242;-82
2023/04/23 11:03:31;;;;;;;14.50;4.90;;;18.70;99.90;;;;;;4787876;29;20254;-83
2023/04/23 11:06:03;;;;;;;10.40;5.00;;;18.70;99.90;;;;;;4799723;29;20224;-84
2023/04/23 11:08:32;;;;;;;9.48;4.60;;;18.70;99.90;;;;;;4770621;30;20193;-83
2023/04/23 11:10:59;;;;;;;11.15;4.88;;;18.70;99.90;;;;;;4754748;30;20262;-83
2023/04/23 11:13:27;;;;;;;14.93;5.45;;;18.60;99.90;;;;;;4769637;30;20206;-84
2023/04/23 11:16:11;;;;;;;11.82;4.22;;;18.60;99.90;;;;;;4757071;30;20563;-83
2023/04/23 11:18:56;;;;;;;11.43;4.43;;;18.50;99.90;;;;;;4784073;29;20283;-82
2023/04/23 11:21:42;;;;;;;10.85;4.22;;;18.50;99.90;;;;;;4755033;30;20181;-82
2023/04/23 11:24:09;;;;;;;11.93;3.95;;;18.60;99.90;;;;;;4770683;30;20201;-82
2023/04/23 11:26:36;;;;;;;12.35;3.83;;;18.60;99.90;;;;;;4783221;30;20362;-83
2023/04/23 11:29:05;;;;;;;10.35;3.70;;;18.60;99.90;;;;;;4787845;29;20240;-82
2023/04/23 11:31:31;;;;;;;9.52;3.38;;;18.70;99.90;;;;;;4772055;30;20196;-83
2023/04/23 11:33:57;;;;;;;10.38;3.75;;;18.70;99.90;;;;;;4788313;30;20203;-82
2023/04/23 11:36:23;;;;;;;10.02;3.75;;;18.80;99.90;;;;;;4791057;29;20196;-85
2023/04/23 11:38:49;;;;;;;9.77;4.00;;;18.90;99.90;;;;;;4784466;30;20654;-79
2023/04/23 11:41:22;;;;;;;6.97;4.15;;;19.00;99.90;;;;;;4784408;30;20189;-79
2023/04/23 11:43:47;;;;;;;8.07;3.03;;;19.10;99.90;;;;;;4770198;30;20272;-79
2023/04/23 11:46:14;;;;;;;9.50;3.28;;;19.20;99.90;;;;;;4761022;30;20734;-80
2023/04/23 11:48:39;;;;;;;12.02;3.45;;;19.20;99.90;;;;;;4786329;30;20192;-82
2023/04/23 11:51:05;;;;;;;7.70;3.13;;;19.20;99.50;;;;;;4768963;30;20288;-81
2023/04/23 11:53:31;;;;;;;11.57;4.63;;;19.30;98.90;;;;;;4769326;30;20192;-83
2023/04/23 11:55:57;;;;;;;11.15;3.38;;;19.30;98.20;;;;;;4785683;30;20204;-82
2023/04/23 11:58:22;;;;;;;9.05;3.90;;;19.40;98.00;;;;;;4801060;29;20208;-83
2023/04/23 12:00:57;;;;;;;10.63;3.67;;;19.40;97.80;;;;;;4753519;30;20224;-84
2023/04/23 12:03:26;;;;;;;7.95;3.42;;;19.50;97.80;;;;;;4776264;30;20719;-81
2023/04/23 12:05:51;;;;;;;6.25;3.22;;;19.60;97.60;;;;;;4786244;30;20282;-82
2023/04/23 12:08:19;;;;;;;10.52;3.83;;;19.60;97.10;;;;;;4785560;30;20654;-82
2023/04/23 12:10:53;;;;;;;11.18;3.25;;;19.60;96.60;;;;;;4771519;29;20199;-81
2023/04/23 12:13:29;;;;;;;9.73;3.42;;;19.60;96.20;;;;;;4773608;30;20196;-82
2023/04/23 12:15:58;;;;;;;9.38;3.00;;;19.70;96.20;;;;;;4774748;30;20271;-82
2023/04/23 12:18:31;;;;;;;6.93;3.17;;;19.70;95.80;;;;;;4773730;30;20258;-82
2023/04/23 12:21:11;;;;;;;7.40;2.90;;;19.80;95.50;;;;;;4775138;30;20184;-82
2023/04/23 12:23:40;;;;;;;5.85;2.80;;;19.90;95.00;;;;;;4760854;30;20242;-81
2023/04/23 12:26:10;;;;;;;9.27;2.80;;;19.80;94.70;;;;;;4789853;30;20271;-82
2023/04/23 12:28:58;;;;;;;7.00;2.55;;;19.80;94.60;;;;;;4775883;29;20247;-81
2023/04/23 12:31:27;;;;;;;7.03;2.63;;;19.80;94.40;;;;;;4776073;30;20189;-81